Flight Track Log - Related Links

Times and Time Zones

All times are in EDT time to prevent confusion due to time zone crossing. See the DAL6269 flight status page for this flight to view local times or setup timezone preferences in your user account.

Time Position Orientation Groundspeed Altitude Reporting Facility
EDT Latitude Longitude Course Direction KTS MPH feet Rate Location/Type
Thu 08:35:56 PM 42.1675 -83.4039 208° Southwest 207 238 2,900  Level Cleveland Center
Thu 08:36:09 PM 42.1650 -83.4061 213° Southwest 213 245 3,100 2,239 Climbing Cleveland Center
Thu 08:37:03 PM 42.1050 -83.4542 211° Southwest 265 305 5,400 2,817 Climbing Cleveland Center
Thu 08:38:04 PM 42.0378 -83.5092 211° Southwest 278 320 8,500 2,620 Climbing Cleveland Center
Thu 08:38:14 PM 42.0381 -83.5103 289° West 273 314 8,500 2,083 Level Cleveland Center
Thu 08:39:16 PM 41.9558 -83.5744 210° Southwest 292 336 11,000 1,742 Climbing Cleveland Center
Thu 08:40:18 PM 41.8731 -83.6406 211° Southwest 346 398 12,100 1,452 Climbing Cleveland Center
Thu 08:41:00 PM 41.7022 -84.4931 208° Southwest  Level Estimated
Thu 08:41:20 PM 41.7881 -83.7092 211° Southwest 353 406 14,000  Level Cleveland Center
Thu 08:42:22 PM 41.6961 -83.7803 210° Southwest 375 432 16,300 1,984 Climbing Cleveland Center
Thu 08:43:24 PM 41.6058 -83.8525 211° Southwest 376 433 18,100 1,887 Climbing Cleveland Center
Thu 08:44:26 PM 41.5114 -83.9264 210° Southwest 389 448 20,200 1,887 Climbing Cleveland Center
Thu 08:45:28 PM 41.3953 -84.0183 211° Southwest 403 464 22,000 1,536 Climbing Cleveland Center
Thu 08:46:31 PM 41.3000 -84.0925 210° Southwest 410 472 23,400 1,344 Climbing Cleveland Center
Thu 08:47:33 PM 41.2292 -84.2081 231° Southwest 416 479 24,800 1,306 Climbing Cleveland Center
Thu 08:48:35 PM 41.1933 -84.3531 252° West 412 474 26,100 1,210 Climbing Cleveland Center
Thu 08:49:37 PM 41.1558 -84.4983 251° West 412 474 27,300 1,161 Climbing Cleveland Center
Thu 08:50:39 PM 41.1106 -84.6789 252° West 425 489 28,500 992 Climbing Cleveland Center
Thu 08:51:50 PM 41.0711 -84.8300 251° West 432 497 29,500 992 Climbing Chicago Center
Thu 08:52:52 PM 41.0231 -85.0147 251° West 438 504 30,700 1,065 Climbing Chicago Center
Thu 08:53:54 PM 40.9992 -85.1697 259° West 433 498 31,700 968 Climbing Chicago Center
Thu 08:54:56 PM 40.9786 -85.3292 260° West 432 497 32,700 960 Climbing Chicago Center
Thu 08:55:59 PM 40.9592 -85.4869 261° West 433 498 33,700 1,008 Climbing Chicago Center
Thu 08:57:01 PM 40.9381 -85.6436 260° West 433 498 34,800 1,016 Climbing Chicago Center
Thu 08:58:03 PM 40.9175 -85.7983 260° West 432 497 35,800 581 Climbing Chicago Center
Thu 08:59:05 PM 40.8925 -85.9875 260° West 432 497 36,000 97 Climbing Chicago Center
Thu 09:00:07 PM 40.8725 -86.1450 261° West 434 499 36,000  Level Chicago Center
Thu 09:01:09 PM 40.8497 -86.3031 259° West 435 501 36,000  Level Chicago Center
Thu 09:02:11 PM 40.8275 -86.4625 260° West 440 506 36,000  Level Chicago Center
Thu 09:03:14 PM 40.8061 -86.6208 260° West 441 507 36,000  Level Chicago Center
Thu 09:04:16 PM 40.7806 -86.8053 260° West 444 511 36,000  Level Chicago Center
Thu 09:05:18 PM 40.7583 -86.9644 260° West 442 509 36,000  Level Chicago Center
Thu 09:06:20 PM 40.7353 -87.1239 259° West 442 509 36,000  Level Chicago Center
Thu 09:07:22 PM 40.7117 -87.2839 259° West 443 510 36,000  Level Chicago Center
Thu 09:08:24 PM 40.6892 -87.4428 259° West 442 509 36,000  Level Chicago Center
Thu 09:09:26 PM 40.6283 -87.5853 241° Southwest 448 516 36,000 -642 Level Chicago Center
Thu 09:11:31 PM 40.4417 -87.8658 229° Southwest 461 531 34,000 -1,155 Descending Chicago Center
Thu 09:12:33 PM 40.3561 -87.9936 229° Southwest 463 533 32,400 -1,548 Descending Chicago Center
Thu 09:13:35 PM 40.2681 -88.1233 228° Southwest 470 541 30,800 -1,452 Descending Chicago Center
Thu 09:14:37 PM 40.1864 -88.2458 229° Southwest 470 541 29,400 -903 Descending Chicago Center
Thu 09:16:41 PM 39.9647 -88.4544 216° Southwest 461 531 28,000 -452 Descending Chicago Center
Thu 09:17:43 PM 39.8542 -88.5053 199° South 427 491 28,000  Level Chicago Center
Thu 09:18:45 PM 39.7450 -88.5550 199° South 417 480 28,000 -288 Level Chicago Center
Thu 09:19:48 PM 39.6353 -88.6058 200° South 417 480 27,400 -768 Descending Chicago Center
Thu 09:20:50 PM 39.5406 -88.6833 212° Southwest 406 467 26,400 -968 Descending Chicago Center
Thu 09:21:52 PM 39.4572 -88.7733 220° Southwest 393 452 25,400 -1,067 Descending Chicago Center
Thu 09:23:05 PM 39.3483 -88.8914 220° Southwest 393 452 24,000 -1,007 Descending Kansas City Center
Thu 09:24:09 PM 39.2647 -88.9781 219° Southwest 391 450 23,100 -672 Descending Kansas City Center
Thu 09:25:10 PM 39.1831 -89.0644 219° Southwest 385 443 22,600 -1,388 Descending Kansas City Center
Thu 09:26:10 PM 39.0958 -89.1692 223° Southwest 391 450 20,300 -2,129 Descending Kansas City Center
Thu 09:27:14 PM 39.0631 -89.2997 252° West 369 425 18,200 -1,824 Descending Kansas City Center
Thu 09:28:15 PM 39.0342 -89.4233 253° West 363 418 16,500 -1,377 Descending Kansas City Center
Thu 09:29:16 PM 39.0064 -89.5447 254° West 358 412 15,400 -726 Descending Kansas City Center
Thu 09:30:19 PM 38.9739 -89.6672 251° West 352 405 15,000 -387 Descending Kansas City Center
Thu 09:31:20 PM 38.9339 -89.7950 248° West 352 405 14,600 -768 Descending Kansas City Center
Thu 09:32:24 PM 38.9017 -89.8944 247° West 343 395 13,400 -1,296 Descending Kansas City Center
Thu 09:33:25 PM 38.8672 -90.0025 248° West 333 383 11,900 -1,636 Descending Kansas City Center
Thu 09:34:25 PM 38.8292 -90.1219 248° West 303 349 10,100 -1,597 Descending Kansas City Center
Thu 09:35:29 PM 38.7989 -90.2147 247° West 290 334 8,600 -1,008 Descending Kansas City Center
Thu 09:36:30 PM 38.8200 -90.3019 287° West 272 313 8,000 -298 Descending Kansas City Center
Thu 09:37:30 PM 38.8517 -90.3789 298° West 248 285 8,000 -629 Level Kansas City Center
Thu 09:38:34 PM 38.8767 -90.4439 296° West 209 241 6,700 -952 Descending Kansas City Center
Thu 09:39:36 PM 38.9075 -90.5222 297° West 208 239 6,000 -541 Descending Kansas City Center
Thu 09:40:36 PM 38.9344 -90.5889 297° West 208 239 5,600 -677 Descending Kansas City Center
Thu 09:41:40 PM 38.9264 -90.6503 260° West 215 247 4,600 -919 Descending Kansas City Center
Thu 09:42:40 PM 38.8806 -90.6317 162° South 198 228 3,700 -726 Descending Kansas City Center
Thu 09:43:44 PM 38.8508 -90.5761 124° Southeast 190 219 3,100 -336 Descending Kansas City Center
Thu 09:44:45 PM 38.8231 -90.5197 122° Southeast 187 215 3,000 -496 Descending Kansas City Center
Thu 09:45:45 PM 38.7967 -90.4653 122° Southeast 183 211 2,100 -816 Descending Kansas City Center
Thu 09:46:50 PM 38.7725 -90.4161 122° Southeast 135 155 1,300 -738 Descending Kansas City Center
Thu 09:47:47 PM 38.7536 -90.3767 122° Southeast 130 150 600 -737 Descending Kansas City Center

Login

Don't have an account? Register now (free) for customized features, flight alerts, and more!